createdAt,value
2023-02-23T00:01:29.972Z,20.40
2023-02-23T00:04:07.399Z,18.70
2023-02-23T00:06:44.318Z,21.30
2023-02-23T00:12:22.790Z,18.30
2023-02-23T00:14:58.441Z,19.10
2023-02-23T00:18:05.847Z,18.60
2023-02-23T00:20:47.515Z,19.30
2023-02-23T00:23:49.666Z,18.20
2023-02-23T00:26:26.632Z,17.80
2023-02-23T00:32:24.385Z,18.40
2023-02-23T00:35:46.289Z,16.00
2023-02-23T00:39:20.101Z,18.20
2023-02-23T00:41:55.940Z,19.50
2023-02-23T00:44:56.057Z,18.80
2023-02-23T00:47:30.975Z,17.80
2023-02-23T00:50:55.970Z,17.00
2023-02-23T00:53:30.391Z,18.20
2023-02-23T00:56:29.850Z,16.60
2023-02-23T00:59:31.513Z,16.80
2023-02-23T01:02:36.183Z,16.50
2023-02-23T01:05:14.747Z,16.80
2023-02-23T01:07:51.418Z,16.60
2023-02-23T01:11:13.992Z,16.10
2023-02-23T01:14:12.273Z,19.10
2023-02-23T01:16:49.127Z,16.20
2023-02-23T01:19:24.787Z,16.30
2023-02-23T01:21:56.732Z,17.50
2023-02-23T01:24:30.589Z,16.70
2023-02-23T01:27:07.196Z,17.20
2023-02-23T01:30:10.280Z,16.30
2023-02-23T01:32:43.528Z,16.00
2023-02-23T01:35:20.535Z,15.90
2023-02-23T01:37:59.816Z,15.80
2023-02-23T01:40:36.741Z,14.50
2023-02-23T01:43:42.673Z,18.00
2023-02-23T01:46:15.872Z,15.90
2023-02-23T01:48:51.290Z,15.20
2023-02-23T01:51:54.915Z,17.10
2023-02-23T01:55:00.775Z,15.80
2023-02-23T01:57:36.860Z,19.10
2023-02-23T02:00:15.074Z,15.60
2023-02-23T02:03:48.349Z,16.00
2023-02-23T02:06:23.448Z,17.80
2023-02-23T02:09:04.508Z,16.70
2023-02-23T02:11:47.963Z,16.80
2023-02-23T02:14:51.074Z,18.10
2023-02-23T02:17:59.832Z,19.00
2023-02-23T02:25:01.159Z,17.90
2023-02-23T02:28:30.001Z,20.30
2023-02-23T02:32:18.491Z,19.40
2023-02-23T02:35:56.983Z,18.70
2023-02-23T02:38:43.947Z,19.70
2023-02-23T02:41:45.565Z,18.40
2023-02-23T02:44:51.921Z,19.90
2023-02-23T02:47:31.120Z,18.90
2023-02-23T02:53:13.532Z,20.10
2023-02-23T02:58:46.568Z,18.70
2023-02-23T03:09:34.730Z,21.10
2023-02-23T03:12:54.458Z,21.40
2023-02-23T03:16:07.960Z,20.10
2023-02-23T03:19:18.136Z,20.90
2023-02-23T03:22:36.123Z,22.10
2023-02-23T03:25:54.129Z,23.00
2023-02-23T03:29:24.141Z,23.60
2023-02-23T03:32:34.114Z,21.90
2023-02-23T03:35:35.789Z,22.40
2023-02-23T03:39:16.768Z,22.10
2023-02-23T03:42:19.858Z,23.40
2023-02-23T03:45:18.247Z,23.70
2023-02-23T03:48:41.602Z,22.10
2023-02-23T03:51:35.968Z,22.30
2023-02-23T03:55:16.010Z,24.70
2023-02-23T03:58:16.796Z,24.70
2023-02-23T04:01:42.754Z,25.10
2023-02-23T04:08:40.745Z,25.90
2023-02-23T04:12:17.829Z,23.20
2023-02-23T04:15:04.083Z,23.80
2023-02-23T04:17:45.917Z,27.30
2023-02-23T04:20:26.074Z,29.30
2023-02-23T04:23:00.614Z,30.20
2023-02-23T04:25:39.311Z,30.20
2023-02-23T04:28:13.483Z,32.40
2023-02-23T04:30:45.552Z,32.90
2023-02-23T04:33:20.323Z,32.60
2023-02-23T04:36:43.046Z,30.00
2023-02-23T04:39:20.716Z,35.20
2023-02-23T04:41:57.626Z,39.60
2023-02-23T04:44:59.144Z,35.20
2023-02-23T04:47:33.061Z,35.40
2023-02-23T04:50:53.645Z,33.80
2023-02-23T04:53:30.311Z,40.70
2023-02-23T04:56:05.366Z,44.20
2023-02-23T04:58:40.813Z,35.30
2023-02-23T05:01:17.080Z,38.70
2023-02-23T05:04:41.769Z,43.40
2023-02-23T05:07:14.464Z,35.10
2023-02-23T05:09:54.182Z,36.60
2023-02-23T05:13:18.268Z,34.60
2023-02-23T05:15:53.010Z,33.80
2023-02-23T05:18:27.512Z,32.10
2023-02-23T05:21:30.209Z,30.10
2023-02-23T05:24:28.117Z,30.80
2023-02-23T05:27:06.567Z,31.70
2023-02-23T05:29:39.237Z,30.70
2023-02-23T05:32:13.595Z,31.40
2023-02-23T05:34:48.621Z,37.40
2023-02-23T05:37:24.055Z,39.80
2023-02-23T05:40:22.462Z,50.60
2023-02-23T05:42:54.352Z,78.70
2023-02-23T05:45:29.053Z,132.20
2023-02-23T05:48:31.491Z,124.40
2023-02-23T05:51:32.602Z,97.70
2023-02-23T05:54:09.377Z,83.40
2023-02-23T05:57:30.998Z,62.80
2023-02-23T06:00:09.097Z,60.80
2023-02-23T06:03:09.847Z,54.70
2023-02-23T06:05:44.114Z,43.90
2023-02-23T06:09:05.606Z,44.10
2023-02-23T06:11:39.992Z,38.20
2023-02-23T06:14:18.022Z,36.50
2023-02-23T06:17:40.800Z,33.90
2023-02-23T06:20:20.126Z,34.90
2023-02-23T06:22:56.248Z,38.40
2023-02-23T06:25:29.887Z,40.70
2023-02-23T06:28:04.209Z,42.00
2023-02-23T06:30:39.041Z,34.30
2023-02-23T06:33:14.603Z,34.80
2023-02-23T06:35:57.509Z,35.60
2023-02-23T06:38:33.788Z,31.20
2023-02-23T06:41:36.554Z,34.40
2023-02-23T06:44:17.280Z,35.00
2023-02-23T06:46:53.613Z,56.60
2023-02-23T06:52:49.972Z,58.80
2023-02-23T06:55:23.367Z,60.40
2023-02-23T06:57:58.300Z,48.10
2023-02-23T07:00:59.792Z,52.20
2023-02-23T07:03:36.724Z,53.10
2023-02-23T07:06:16.354Z,90.30
2023-02-23T07:08:50.838Z,66.40
2023-02-23T07:11:52.742Z,62.00
2023-02-23T07:14:27.674Z,62.70
2023-02-23T07:17:00.230Z,50.40
2023-02-23T07:19:33.793Z,47.20
2023-02-23T07:22:18.464Z,47.80
2023-02-23T07:28:18.466Z,49.60
2023-02-23T07:31:16.405Z,41.00
2023-02-23T07:33:55.123Z,39.00
2023-02-23T07:36:29.354Z,51.00
2023-02-23T07:39:29.361Z,56.70
2023-02-23T07:42:07.983Z,48.10
2023-02-23T07:44:41.261Z,35.90
2023-02-23T07:47:19.616Z,42.40
2023-02-23T07:49:56.128Z,53.60
2023-02-23T07:53:16.832Z,39.50
2023-02-23T07:55:50.491Z,45.50
2023-02-23T07:58:25.275Z,34.30
2023-02-23T08:01:03.911Z,36.80
2023-02-23T08:04:23.719Z,37.50
2023-02-23T08:07:23.508Z,33.60
2023-02-23T08:09:59.916Z,32.30
2023-02-23T08:12:37.826Z,37.60
2023-02-23T08:15:13.104Z,38.90
2023-02-23T08:18:10.560Z,36.00
2023-02-23T08:20:45.003Z,31.30
2023-02-23T08:23:47.222Z,35.80
2023-02-23T08:26:21.106Z,44.10
2023-02-23T08:29:24.200Z,41.40
2023-02-23T08:31:58.362Z,40.50
2023-02-23T08:34:55.612Z,44.10
2023-02-23T08:37:32.619Z,35.70
2023-02-23T08:40:32.248Z,32.80
2023-02-23T08:43:11.363Z,44.20
2023-02-23T08:45:45.658Z,55.90
2023-02-23T08:48:44.323Z,63.40
2023-02-23T08:51:21.460Z,51.00
2023-02-23T08:53:53.551Z,49.20
2023-02-23T08:56:27.628Z,72.20
2023-02-23T08:59:00.800Z,43.50
2023-02-23T09:01:38.867Z,42.00
2023-02-23T09:04:12.267Z,44.10
2023-02-23T09:06:46.994Z,31.20
2023-02-23T09:09:20.931Z,39.90
2023-02-23T09:11:55.365Z,44.60
2023-02-23T09:14:32.507Z,53.30
2023-02-23T09:17:34.566Z,32.90
2023-02-23T09:20:13.591Z,38.50
2023-02-23T09:22:49.865Z,34.90
2023-02-23T09:25:24.182Z,41.40
2023-02-23T09:27:59.678Z,33.90
2023-02-23T09:30:34.910Z,35.50
2023-02-23T09:33:09.070Z,37.80
2023-02-23T09:35:43.638Z,41.80
2023-02-23T09:38:15.741Z,38.00
2023-02-23T09:40:56.982Z,45.20
2023-02-23T09:43:35.301Z,30.50
2023-02-23T09:46:58.745Z,35.30
2023-02-23T09:50:01.270Z,27.20
2023-02-23T09:52:42.468Z,28.50
2023-02-23T09:59:02.964Z,27.70
2023-02-23T10:02:00.332Z,29.80
2023-02-23T10:04:42.557Z,29.60
2023-02-23T10:10:53.296Z,32.20
2023-02-23T10:13:57.316Z,28.60
2023-02-23T10:16:39.033Z,28.20
2023-02-23T10:19:20.934Z,30.00
2023-02-23T10:22:02.025Z,28.60
2023-02-23T10:24:38.253Z,28.60
2023-02-23T10:33:50.597Z,27.20
2023-02-23T10:36:37.648Z,28.20
2023-02-23T10:39:34.678Z,23.50
2023-02-23T10:42:57.137Z,23.50
2023-02-23T10:45:32.582Z,24.80
2023-02-23T10:48:10.465Z,23.00
2023-02-23T10:50:45.767Z,48.40
2023-02-23T10:53:24.228Z,25.20
2023-02-23T10:56:10.773Z,31.70
2023-02-23T10:58:51.240Z,35.60
2023-02-23T11:02:01.045Z,25.20
2023-02-23T11:04:39.929Z,22.90
2023-02-23T11:07:20.320Z,22.90
2023-02-23T11:09:53.531Z,23.80
2023-02-23T11:12:39.318Z,36.10
2023-02-23T11:15:46.368Z,28.90
2023-02-23T11:18:27.334Z,21.80
2023-02-23T11:24:32.253Z,23.00
2023-02-23T11:30:13.679Z,26.50
2023-02-23T11:33:12.707Z,24.20
2023-02-23T11:36:11.560Z,23.10
2023-02-23T11:38:49.709Z,20.80
2023-02-23T11:42:10.531Z,21.00
2023-02-23T11:44:47.692Z,20.70
2023-02-23T11:47:24.237Z,22.60
2023-02-23T11:49:59.599Z,19.60
2023-02-23T11:52:37.962Z,18.10
2023-02-23T11:55:20.608Z,19.60
2023-02-23T11:58:03.036Z,19.70
2023-02-23T12:00:38.213Z,19.30
2023-02-23T12:03:26.445Z,18.40
2023-02-23T12:06:04.883Z,21.60
2023-02-23T12:09:07.560Z,18.40
2023-02-23T12:15:39.564Z,18.50
2023-02-23T12:18:20.871Z,23.70
2023-02-23T12:21:26.298Z,20.50
2023-02-23T12:24:26.346Z,22.90
2023-02-23T12:27:49.973Z,19.30
2023-02-23T12:36:57.554Z,23.80
2023-02-23T12:39:33.336Z,20.20
2023-02-23T12:42:57.566Z,19.30
2023-02-23T12:49:06.696Z,23.20
2023-02-23T12:51:45.115Z,16.70
2023-02-23T12:54:24.173Z,21.40
2023-02-23T12:57:27.982Z,20.60
2023-02-23T13:00:35.290Z,20.80
2023-02-23T13:03:52.316Z,24.20
2023-02-23T13:06:40.778Z,19.90
2023-02-23T13:09:49.077Z,22.70
2023-02-23T13:12:38.235Z,24.70
2023-02-23T13:15:40.845Z,19.40
2023-02-23T13:21:45.460Z,31.90
2023-02-23T13:24:41.936Z,23.40
2023-02-23T13:27:25.103Z,26.80
2023-02-23T13:30:00.961Z,21.40
2023-02-23T13:32:39.465Z,23.60
2023-02-23T13:35:41.504Z,22.30
2023-02-23T13:38:27.140Z,33.70
2023-02-23T13:41:10.250Z,31.40
2023-02-23T13:47:27.904Z,35.80
2023-02-23T13:50:31.714Z,55.70
2023-02-23T13:53:09.319Z,31.40
2023-02-23T13:55:55.051Z,48.00
2023-02-23T13:59:21.067Z,49.10
2023-02-23T14:01:55.168Z,30.70
2023-02-23T14:04:52.993Z,45.60
2023-02-23T14:07:56.710Z,38.60
2023-02-23T14:10:37.512Z,38.50
2023-02-23T14:13:57.675Z,29.80
2023-02-23T14:16:37.705Z,26.80
2023-02-23T14:19:39.974Z,28.50
2023-02-23T14:22:18.590Z,20.70
2023-02-23T14:25:36.988Z,27.00
2023-02-23T14:32:07.597Z,21.00
2023-02-23T14:35:37.182Z,19.90
2023-02-23T14:38:48.002Z,25.10
2023-02-23T14:41:52.035Z,19.00
2023-02-23T14:44:31.161Z,29.20
2023-02-23T14:47:30.353Z,25.10
2023-02-23T14:50:05.060Z,22.70
2023-02-23T14:52:45.505Z,26.10
2023-02-23T14:55:29.574Z,27.00
2023-02-23T15:02:00.734Z,19.50
2023-02-23T15:04:38.654Z,32.20
2023-02-23T15:08:03.591Z,25.80
2023-02-23T15:10:44.360Z,25.50
2023-02-23T15:13:45.113Z,26.10
2023-02-23T15:16:45.257Z,29.90
2023-02-23T15:19:26.034Z,23.70
2023-02-23T15:22:47.655Z,27.20
2023-02-23T15:25:31.224Z,26.60
2023-02-23T15:28:21.713Z,28.40
2023-02-23T15:30:58.119Z,36.00
2023-02-23T15:34:00.097Z,30.70
2023-02-23T15:37:01.398Z,31.50
2023-02-23T15:40:00.364Z,34.00
2023-02-23T15:43:00.728Z,35.00
2023-02-23T15:46:01.614Z,37.90
2023-02-23T15:48:48.562Z,50.20
2023-02-23T15:51:35.761Z,44.60
2023-02-23T16:01:28.245Z,45.80
2023-02-23T16:04:09.410Z,52.60
2023-02-23T16:07:20.280Z,49.70
2023-02-23T16:09:56.254Z,66.00
2023-02-23T16:16:02.025Z,59.50
2023-02-23T16:18:44.877Z,55.80
2023-02-23T16:21:22.632Z,51.80
2023-02-23T16:23:59.197Z,44.30
2023-02-23T16:26:38.221Z,43.10
2023-02-23T16:29:46.766Z,41.60
2023-02-23T16:32:26.776Z,42.90
2023-02-23T16:35:52.131Z,48.20
2023-02-23T16:38:29.758Z,51.10
2023-02-23T16:41:07.727Z,50.70
2023-02-23T16:43:45.988Z,46.60
2023-02-23T16:46:19.653Z,42.40
2023-02-23T16:49:17.288Z,48.70
2023-02-23T16:51:51.425Z,53.00
2023-02-23T16:54:23.779Z,48.10
2023-02-23T16:56:59.678Z,64.00
2023-02-23T16:59:36.611Z,61.70
2023-02-23T17:02:18.043Z,48.70
2023-02-23T17:04:52.832Z,45.30
2023-02-23T17:07:34.755Z,59.70
2023-02-23T17:10:14.676Z,49.70
2023-02-23T17:13:18.382Z,55.70
2023-02-23T17:15:53.918Z,58.50
2023-02-23T17:19:18.122Z,55.10
2023-02-23T17:22:19.197Z,56.80
2023-02-23T17:24:59.821Z,57.10
2023-02-23T17:28:23.510Z,58.60
2023-02-23T17:30:59.093Z,53.90
2023-02-23T17:33:34.813Z,51.80
2023-02-23T17:36:11.534Z,52.90
2023-02-23T17:38:48.899Z,56.70
2023-02-23T17:41:26.933Z,52.20
2023-02-23T17:53:27.716Z,59.60
2023-02-23T17:56:00.640Z,61.00
2023-02-23T17:58:38.536Z,57.20
2023-02-23T18:01:12.664Z,61.50
2023-02-23T18:03:49.213Z,48.50
2023-02-23T18:06:48.729Z,52.10
2023-02-23T18:09:22.570Z,59.10
2023-02-23T18:12:22.496Z,56.10
2023-02-23T18:15:25.072Z,50.60
2023-02-23T18:18:26.824Z,50.00
2023-02-23T18:21:08.349Z,54.90
2023-02-23T18:23:43.300Z,52.10
2023-02-23T18:26:17.954Z,50.70
2023-02-23T18:28:52.191Z,44.80
2023-02-23T18:32:22.426Z,48.80
2023-02-23T18:35:02.022Z,44.90
2023-02-23T18:37:41.027Z,74.90
2023-02-23T18:40:21.628Z,52.90
2023-02-23T18:43:21.865Z,66.70
2023-02-23T18:52:43.140Z,63.00
2023-02-23T18:56:04.133Z,60.80
2023-02-23T18:58:43.406Z,60.50
2023-02-23T19:01:41.579Z,62.50
2023-02-23T19:07:22.294Z,62.90
2023-02-23T19:10:30.042Z,62.10
2023-02-23T19:13:09.333Z,64.40
2023-02-23T19:15:43.793Z,73.70
2023-02-23T19:18:24.047Z,65.20
2023-02-23T19:21:01.060Z,87.50
2023-02-23T19:23:37.494Z,68.40
2023-02-23T19:27:24.015Z,70.40
2023-02-23T19:30:25.118Z,69.40
2023-02-23T19:33:01.261Z,70.60
2023-02-23T19:35:35.512Z,66.60
2023-02-23T19:38:16.159Z,71.20
2023-02-23T19:40:49.801Z,79.10
2023-02-23T19:43:24.059Z,77.60
2023-02-23T19:49:04.604Z,71.80
2023-02-23T19:51:39.333Z,72.50
2023-02-23T19:54:12.160Z,73.10
2023-02-23T19:57:11.559Z,68.10
2023-02-23T19:59:44.752Z,72.80
2023-02-23T20:02:20.431Z,79.90
2023-02-23T20:05:01.800Z,91.60
2023-02-23T20:07:37.181Z,83.80
2023-02-23T20:10:16.506Z,109.10
2023-02-23T20:13:14.834Z,92.60
2023-02-23T20:19:15.364Z,89.70
2023-02-23T20:21:51.726Z,87.50
2023-02-23T20:24:27.658Z,80.20
2023-02-23T20:27:53.197Z,82.50
2023-02-23T20:30:55.853Z,83.50
2023-02-23T20:33:30.493Z,79.00
2023-02-23T20:39:12.526Z,75.70
2023-02-23T20:41:48.190Z,57.40
2023-02-23T20:44:26.247Z,59.90
2023-02-23T20:47:00.985Z,55.50
2023-02-23T20:49:35.329Z,57.10
2023-02-23T20:52:12.587Z,65.20
2023-02-23T20:58:15.126Z,51.20
2023-02-23T21:00:50.838Z,49.60
2023-02-23T21:04:13.171Z,48.80
2023-02-23T21:07:37.418Z,47.50
2023-02-23T21:11:03.755Z,50.70
2023-02-23T21:13:41.095Z,56.30
2023-02-23T21:16:19.497Z,49.30
2023-02-23T21:19:46.837Z,54.20
2023-02-23T21:22:44.828Z,46.10
2023-02-23T21:25:20.657Z,43.50
2023-02-23T21:27:55.214Z,40.50
2023-02-23T21:30:55.044Z,41.30
2023-02-23T21:33:29.615Z,43.50
2023-02-23T21:36:06.221Z,44.60
2023-02-23T21:38:38.702Z,39.20
2023-02-23T21:41:15.557Z,44.00
2023-02-23T21:43:55.110Z,41.30
2023-02-23T21:46:52.910Z,40.60
2023-02-23T21:49:50.520Z,37.10
2023-02-23T21:55:27.913Z,37.60
2023-02-23T21:58:01.279Z,38.50
2023-02-23T22:00:35.885Z,36.80
2023-02-23T22:03:12.906Z,36.40
2023-02-23T22:05:47.749Z,36.50
2023-02-23T22:08:47.688Z,36.60
2023-02-23T22:11:48.988Z,36.80
2023-02-23T22:14:50.912Z,37.70
2023-02-23T22:18:11.756Z,37.90
2023-02-23T22:21:09.904Z,38.30
2023-02-23T22:23:47.050Z,38.70
2023-02-23T22:26:54.256Z,42.50
2023-02-23T22:29:54.379Z,39.40
2023-02-23T22:32:35.125Z,36.10
2023-02-23T22:35:33.945Z,37.30
2023-02-23T22:38:31.614Z,36.80
2023-02-23T22:41:07.411Z,38.50
2023-02-23T22:44:32.782Z,37.20
2023-02-23T22:47:08.146Z,39.20
2023-02-23T22:53:04.969Z,49.70
2023-02-23T22:55:49.155Z,50.80
2023-02-23T22:58:24.746Z,39.60
2023-02-23T23:01:05.382Z,42.10
2023-02-23T23:03:49.118Z,44.50
2023-02-23T23:06:49.445Z,44.30
2023-02-23T23:09:28.066Z,40.90
2023-02-23T23:12:53.076Z,42.40
2023-02-23T23:18:34.699Z,40.40
2023-02-23T23:21:16.071Z,42.60
2023-02-23T23:23:50.523Z,41.10
2023-02-23T23:26:28.772Z,40.90
2023-02-23T23:29:33.418Z,41.20
2023-02-23T23:32:13.148Z,42.40
2023-02-23T23:34:51.961Z,41.90
2023-02-23T23:37:50.570Z,46.30
2023-02-23T23:40:25.675Z,48.60
2023-02-23T23:43:04.422Z,50.10
2023-02-23T23:49:06.582Z,44.30
2023-02-23T23:52:08.883Z,45.00
2023-02-23T23:54:47.499Z,44.70
2023-02-23T23:57:21.956Z,42.90
2023-02-23T23:59:59.642Z,41.90
